Airfield :
LOGIN :

Register | Disclaimer

   EN    FR    IT 

 










Legend :    VFR   Marginal VFR   IFR   Intensive IFR   Very Intensive IFR
Visi :
Ceiling :
>= 8 km
>= 3000ft
5 to 8 km
1000 to 3000 ft
1500m to 5 km
500 to 1000 ft
800 to 1500m
200 to 500 ft
< 800m
< 200 ft
Symbols :   Thunderstorms  Fog  Heavy snow  Heavy precipitations  Wind > 20 kt
SIGMETs :     Misc.  Thunderstorms  Icing  Turbulence  Mountain Waves  Volcanic Ashes







- Airport Elevation : 147 ft
- IATA code : DUS


EDDL - Düsseldorf Int.

CURRENT METAR :
  • 211320Z 27011KT 9999 -RA FEW030 12/05 Q1027 NOSIG

EXPIRED METARs :
  • 211250Z 25012KT 9999 FEW030 13/05 Q1027 NOSIG
  • 211220Z 25013KT 220V300 9999 FEW028 13/05 Q1027 NOSIG
  • 211150Z 24010KT 9999 FEW024 13/06 Q1027 NOSIG
  • 211120Z 23008KT CAVOK 12/06 Q1027 NOSIG
  • 211050Z 22008KT CAVOK 11/06 Q1027 NOSIG

TAF TAF EDDL
Valid from the 21 at 12:00 until the 22 at 18:00 UTC


211100Z 2112/2218 24007KT 9999 SCT045
TEMPO 2112/2115 24012KT
TEMPO 2116/2119 BKN012
BECMG 2119/2122 31004KT 4000 BR BKN008
TEMPO 2123/2209 2000 -DZRA BKN004
BECMG 2210/2214 03006KT 9000 BKN025
No reported NOTAMs for that airfield.



MET'MAP, your aeronautical weather chart ! - Copyright ORBIFLY December 2007 - Disclaimer

ORBIFLY MET'MAP TEAM :

Programming & Development : Alexandra Zaïnal
Concept & Development : Baudouin d'Aumeries
Co-Development & Prog : Marc-Olivier Méhu
Technical & hardware support : Manuel Goepfert

Contact : metmap@orbifly.com




SOURCES & CREDITS :

   NOAA